sensor_id;sensor_type;location;lat;lon;timestamp;P1;durP1;ratioP1;P2;durP2;ratioP2
27977;SDS011;15314;49.248;6.968;2022-11-12T00:00:52;31.55;;;15.70;;
27977;SDS011;15314;49.248;6.968;2022-11-12T00:01:53;16.73;;;15.43;;
27977;SDS011;15314;49.248;6.968;2022-11-12T00:02:54;20.85;;;17.10;;
27977;SDS011;15314;49.248;6.968;2022-11-12T00:03:54;15.80;;;14.50;;
27977;SDS011;15314;49.248;6.968;2022-11-12T00:04:56;52.45;;;17.50;;
27977;SDS011;15314;49.248;6.968;2022-11-12T00:05:56;18.85;;;16.25;;
27977;SDS011;15314;49.248;6.968;2022-11-12T00:06:57;23.00;;;16.40;;
27977;SDS011;15314;49.248;6.968;2022-11-12T00:07:58;21.80;;;15.38;;
27977;SDS011;15314;49.248;6.968;2022-11-12T00:08:59;17.48;;;15.68;;
27977;SDS011;15314;49.248;6.968;2022-11-12T00:09:59;18.33;;;16.23;;
27977;SDS011;15314;49.248;6.968;2022-11-12T00:11:00;19.50;;;15.40;;
27977;SDS011;15314;49.248;6.968;2022-11-12T00:12:00;19.25;;;15.55;;
27977;SDS011;15314;49.248;6.968;2022-11-12T00:13:01;32.97;;;19.55;;
27977;SDS011;15314;49.248;6.968;2022-11-12T00:14:02;36.20;;;17.45;;
27977;SDS011;15314;49.248;6.968;2022-11-12T00:15:02;36.08;;;16.77;;
27977;SDS011;15314;49.248;6.968;2022-11-12T00:16:04;17.65;;;15.82;;
27977;SDS011;15314;49.248;6.968;2022-11-12T00:17:05;45.17;;;17.70;;
27977;SDS011;15314;49.248;6.968;2022-11-12T00:18:05;17.13;;;15.55;;
27977;SDS011;15314;49.248;6.968;2022-11-12T00:19:06;18.80;;;17.00;;
27977;SDS011;15314;49.248;6.968;2022-11-12T00:20:07;16.67;;;15.27;;
27977;SDS011;15314;49.248;6.968;2022-11-12T00:21:08;16.08;;;14.50;;
27977;SDS011;15314;49.248;6.968;2022-11-12T00:22:09;16.60;;;15.18;;
27977;SDS011;15314;49.248;6.968;2022-11-12T00:23:09;16.80;;;15.30;;
27977;SDS011;15314;49.248;6.968;2022-11-12T00:24:10;22.88;;;16.27;;
27977;SDS011;15314;49.248;6.968;2022-11-12T00:25:11;64.70;;;18.58;;
27977;SDS011;15314;49.248;6.968;2022-11-12T00:26:11;17.13;;;15.63;;
27977;SDS011;15314;49.248;6.968;2022-11-12T00:27:12;17.40;;;15.90;;
27977;SDS011;15314;49.248;6.968;2022-11-12T00:28:13;56.03;;;17.55;;
27977;SDS011;15314;49.248;6.968;2022-11-12T00:29:13;39.78;;;17.17;;
27977;SDS011;15314;49.248;6.968;2022-11-12T00:30:14;17.10;;;15.70;;
27977;SDS011;15314;49.248;6.968;2022-11-12T00:31:15;18.75;;;16.90;;
27977;SDS011;15314;49.248;6.968;2022-11-12T00:32:15;47.47;;;16.92;;
27977;SDS011;15314;49.248;6.968;2022-11-12T00:33:16;32.38;;;16.35;;
27977;SDS011;15314;49.248;6.968;2022-11-12T00:34:17;49.35;;;18.08;;
27977;SDS011;15314;49.248;6.968;2022-11-12T00:35:17;33.05;;;17.20;;
27977;SDS011;15314;49.248;6.968;2022-11-12T00:36:18;17.30;;;15.80;;
27977;SDS011;15314;49.248;6.968;2022-11-12T00:37:18;17.92;;;15.85;;
27977;SDS011;15314;49.248;6.968;2022-11-12T00:38:22;34.20;;;14.98;;
27977;SDS011;15314;49.248;6.968;2022-11-12T00:39:22;108.28;;;18.55;;
27977;SDS011;15314;49.248;6.968;2022-11-12T00:40:23;36.88;;;16.08;;
27977;SDS011;15314;49.248;6.968;2022-11-12T00:41:24;38.85;;;17.83;;
27977;SDS011;15314;49.248;6.968;2022-11-12T00:42:24;17.25;;;15.85;;
27977;SDS011;15314;49.248;6.968;2022-11-12T00:43:25;39.45;;;16.98;;
27977;SDS011;15314;49.248;6.968;2022-11-12T00:44:26;17.67;;;15.57;;
27977;SDS011;15314;49.248;6.968;2022-11-12T00:45:28;21.33;;;17.35;;
27977;SDS011;15314;49.248;6.968;2022-11-12T00:46:29;21.60;;;15.65;;
27977;SDS011;15314;49.248;6.968;2022-11-12T00:47:29;16.55;;;15.25;;
27977;SDS011;15314;49.248;6.968;2022-11-12T00:48:30;18.30;;;16.00;;
27977;SDS011;15314;49.248;6.968;2022-11-12T00:49:31;18.42;;;16.40;;
27977;SDS011;15314;49.248;6.968;2022-11-12T00:50:31;23.13;;;16.70;;
27977;SDS011;15314;49.248;6.968;2022-11-12T00:51:32;18.63;;;15.63;;
27977;SDS011;15314;49.248;6.968;2022-11-12T00:52:33;18.73;;;16.33;;
27977;SDS011;15314;49.248;6.968;2022-11-12T00:53:33;16.85;;;15.55;;
27977;SDS011;15314;49.248;6.968;2022-11-12T00:54:34;20.08;;;16.60;;
27977;SDS011;15314;49.248;6.968;2022-11-12T00:55:34;19.60;;;16.00;;
27977;SDS011;15314;49.248;6.968;2022-11-12T00:56:35;17.73;;;15.50;;
27977;SDS011;15314;49.248;6.968;2022-11-12T00:57:36;17.90;;;16.15;;
27977;SDS011;15314;49.248;6.968;2022-11-12T00:58:36;17.42;;;15.95;;
27977;SDS011;15314;49.248;6.968;2022-11-12T00:59:37;68.18;;;21.10;;
27977;SDS011;15314;49.248;6.968;2022-11-12T01:00:37;17.60;;;15.73;;
27977;SDS011;15314;49.248;6.968;2022-11-12T01:01:38;35.83;;;16.48;;
27977;SDS011;15314;49.248;6.968;2022-11-12T01:02:39;16.55;;;15.18;;
27977;SDS011;15314;49.248;6.968;2022-11-12T01:03:40;35.83;;;17.83;;
27977;SDS011;15314;49.248;6.968;2022-11-12T01:04:41;110.57;;;20.63;;
27977;SDS011;15314;49.248;6.968;2022-11-12T01:05:42;31.27;;;18.10;;
27977;SDS011;15314;49.248;6.968;2022-11-12T01:06:42;44.85;;;17.33;;
27977;SDS011;15314;49.248;6.968;2022-11-12T01:07:43;75.60;;;20.67;;
27977;SDS011;15314;49.248;6.968;2022-11-12T01:08:43;26.90;;;18.33;;
27977;SDS011;15314;49.248;6.968;2022-11-12T01:09:44;18.30;;;16.40;;
27977;SDS011;15314;49.248;6.968;2022-11-12T09:11:59;13.75;;;12.57;;
27977;SDS011;15314;49.248;6.968;2022-11-12T09:13:00;15.27;;;13.70;;
27977;SDS011;15314;49.248;6.968;2022-11-12T09:14:00;14.27;;;13.15;;
27977;SDS011;15314;49.248;6.968;2022-11-12T09:15:01;13.73;;;12.63;;
27977;SDS011;15314;49.248;6.968;2022-11-12T09:16:05;14.40;;;12.95;;
27977;SDS011;15314;49.248;6.968;2022-11-12T09:17:08;13.43;;;12.43;;
27977;SDS011;15314;49.248;6.968;2022-11-12T09:18:12;14.85;;;13.65;;
27977;SDS011;15314;49.248;6.968;2022-11-12T09:19:14;12.35;;;11.50;;
27977;SDS011;15314;49.248;6.968;2022-11-12T09:20:15;14.02;;;13.02;;
27977;SDS011;15314;49.248;6.968;2022-11-12T09:21:16;13.80;;;12.70;;
27977;SDS011;15314;49.248;6.968;2022-11-12T09:22:17;13.60;;;12.40;;
27977;SDS011;15314;49.248;6.968;2022-11-12T09:23:17;14.43;;;13.23;;
27977;SDS011;15314;49.248;6.968;2022-11-12T09:24:18;15.73;;;14.50;;
27977;SDS011;15314;49.248;6.968;2022-11-12T09:25:18;14.43;;;13.27;;
27977;SDS011;15314;49.248;6.968;2022-11-12T09:26:19;14.40;;;13.27;;
27977;SDS011;15314;49.248;6.968;2022-11-12T09:27:20;15.30;;;14.20;;
27977;SDS011;15314;49.248;6.968;2022-11-12T09:28:20;13.75;;;12.75;;
27977;SDS011;15314;49.248;6.968;2022-11-12T09:29:21;15.20;;;14.00;;
27977;SDS011;15314;49.248;6.968;2022-11-12T09:30:22;23.92;;;14.73;;
27977;SDS011;15314;49.248;6.968;2022-11-12T09:31:22;15.27;;;13.85;;
27977;SDS011;15314;49.248;6.968;2022-11-12T09:32:24;16.92;;;14.73;;
27977;SDS011;15314;49.248;6.968;2022-11-12T09:33:26;15.52;;;13.95;;
27977;SDS011;15314;49.248;6.968;2022-11-12T09:34:29;13.27;;;12.18;;
27977;SDS011;15314;49.248;6.968;2022-11-12T09:35:30;14.30;;;13.10;;
27977;SDS011;15314;49.248;6.968;2022-11-12T09:36:31;15.38;;;13.98;;
27977;SDS011;15314;49.248;6.968;2022-11-12T09:37:31;16.25;;;14.75;;
27977;SDS011;15314;49.248;6.968;2022-11-12T09:38:32;15.02;;;13.65;;
27977;SDS011;15314;49.248;6.968;2022-11-12T09:39:33;14.13;;;12.93;;
27977;SDS011;15314;49.248;6.968;2022-11-12T09:43:48;14.48;;;13.25;;
27977;SDS011;15314;49.248;6.968;2022-11-12T09:45:03;14.60;;;13.50;;
27977;SDS011;15314;49.248;6.968;2022-11-12T09:47:48;14.50;;;13.45;;
27977;SDS011;15314;49.248;6.968;2022-11-12T09:48:55;15.73;;;14.43;;
27977;SDS011;15314;49.248;6.968;2022-11-12T09:51:27;14.90;;;13.63;;
27977;SDS011;15314;49.248;6.968;2022-11-12T09:52:31;14.35;;;13.27;;
27977;SDS011;15314;49.248;6.968;2022-11-12T09:54:16;15.18;;;13.98;;
27977;SDS011;15314;49.248;6.968;2022-11-12T09:55:06;15.70;;;14.52;;
27977;SDS011;15314;49.248;6.968;2022-11-12T09:56:12;16.02;;;14.48;;
27977;SDS011;15314;49.248;6.968;2022-11-12T09:57:13;21.45;;;16.83;;
27977;SDS011;15314;49.248;6.968;2022-11-12T09:58:14;18.15;;;16.33;;
27977;SDS011;15314;49.248;6.968;2022-11-12T09:59:16;19.02;;;16.65;;
27977;SDS011;15314;49.248;6.968;2022-11-12T10:00:18;19.50;;;17.60;;
27977;SDS011;15314;49.248;6.968;2022-11-12T10:01:26;16.80;;;15.30;;
27977;SDS011;15314;49.248;6.968;2022-11-12T10:05:57;24.25;;;21.85;;
27977;SDS011;15314;49.248;6.968;2022-11-12T10:08:53;22.30;;;20.08;;
27977;SDS011;15314;49.248;6.968;2022-11-12T10:10:13;19.73;;;17.95;;
27977;SDS011;15314;49.248;6.968;2022-11-12T10:13:11;18.25;;;16.63;;
27977;SDS011;15314;49.248;6.968;2022-11-12T10:17:30;22.42;;;15.63;;
27977;SDS011;15314;49.248;6.968;2022-11-12T10:22:56;18.38;;;16.75;;
27977;SDS011;15314;49.248;6.968;2022-11-12T10:24:00;17.33;;;15.93;;
27977;SDS011;15314;49.248;6.968;2022-11-12T10:25:10;16.98;;;15.60;;
27977;SDS011;15314;49.248;6.968;2022-11-12T10:26:15;15.95;;;14.57;;
27977;SDS011;15314;49.248;6.968;2022-11-12T10:27:18;18.30;;;16.55;;
27977;SDS011;15314;49.248;6.968;2022-11-12T10:28:29;17.45;;;15.85;;
27977;SDS011;15314;49.248;6.968;2022-11-12T10:30:53;19.02;;;17.17;;
27977;SDS011;15314;49.248;6.968;2022-11-12T10:31:59;17.23;;;15.55;;
27977;SDS011;15314;49.248;6.968;2022-11-12T10:33:01;16.25;;;14.75;;
27977;SDS011;15314;49.248;6.968;2022-11-12T10:34:13;16.20;;;14.65;;
27977;SDS011;15314;49.248;6.968;2022-11-12T10:35:22;15.98;;;14.50;;
27977;SDS011;15314;49.248;6.968;2022-11-12T10:36:29;19.30;;;15.88;;
27977;SDS011;15314;49.248;6.968;2022-11-12T10:38:39;16.42;;;15.02;;
27977;SDS011;15314;49.248;6.968;2022-11-12T10:39:46;16.90;;;15.45;;
27977;SDS011;15314;49.248;6.968;2022-11-12T10:40:46;17.65;;;16.00;;
27977;SDS011;15314;49.248;6.968;2022-11-12T10:41:50;18.88;;;16.67;;
27977;SDS011;15314;49.248;6.968;2022-11-12T10:44:05;18.52;;;16.83;;
27977;SDS011;15314;49.248;6.968;2022-11-12T10:45:17;16.25;;;14.85;;
27977;SDS011;15314;49.248;6.968;2022-11-12T10:46:21;18.30;;;16.63;;
27977;SDS011;15314;49.248;6.968;2022-11-12T10:47:36;20.65;;;17.77;;
27977;SDS011;15314;49.248;6.968;2022-11-12T10:48:42;18.15;;;16.33;;
27977;SDS011;15314;49.248;6.968;2022-11-12T10:50:02;16.17;;;14.82;;
27977;SDS011;15314;49.248;6.968;2022-11-12T10:51:22;17.45;;;15.75;;
27977;SDS011;15314;49.248;6.968;2022-11-12T10:52:27;17.70;;;16.23;;
27977;SDS011;15314;49.248;6.968;2022-11-12T10:53:30;18.33;;;16.40;;
27977;SDS011;15314;49.248;6.968;2022-11-12T10:54:35;16.30;;;14.88;;
27977;SDS011;15314;49.248;6.968;2022-11-12T10:55:37;16.45;;;14.98;;
27977;SDS011;15314;49.248;6.968;2022-11-12T10:56:53;16.25;;;14.95;;
27977;SDS011;15314;49.248;6.968;2022-11-12T10:58:13;21.90;;;19.70;;
27977;SDS011;15314;49.248;6.968;2022-11-12T10:59:18;39.85;;;35.55;;
27977;SDS011;15314;49.248;6.968;2022-11-12T11:00:20;46.90;;;37.40;;
27977;SDS011;15314;49.248;6.968;2022-11-12T11:01:22;23.95;;;21.58;;
27977;SDS011;15314;49.248;6.968;2022-11-12T11:02:22;24.80;;;22.17;;
27977;SDS011;15314;49.248;6.968;2022-11-12T11:03:24;16.83;;;15.43;;
27977;SDS011;15314;49.248;6.968;2022-11-12T11:04:36;18.48;;;16.88;;
27977;SDS011;15314;49.248;6.968;2022-11-12T11:05:45;18.73;;;16.95;;
27977;SDS011;15314;49.248;6.968;2022-11-12T11:07:05;17.23;;;15.82;;
27977;SDS011;15314;49.248;6.968;2022-11-12T11:08:32;16.58;;;15.18;;
27977;SDS011;15314;49.248;6.968;2022-11-12T11:09:35;17.65;;;16.10;;
27977;SDS011;15314;49.248;6.968;2022-11-12T11:10:36;18.83;;;17.15;;
27977;SDS011;15314;49.248;6.968;2022-11-12T11:11:37;18.65;;;17.00;;
27977;SDS011;15314;49.248;6.968;2022-11-12T11:12:48;15.88;;;14.57;;
27977;SDS011;15314;49.248;6.968;2022-11-12T11:14:41;17.73;;;16.33;;
27977;SDS011;15314;49.248;6.968;2022-11-12T11:15:37;18.00;;;16.58;;
27977;SDS011;15314;49.248;6.968;2022-11-12T11:16:54;16.45;;;15.13;;
27977;SDS011;15314;49.248;6.968;2022-11-12T11:17:57;17.23;;;15.82;;
27977;SDS011;15314;49.248;6.968;2022-11-12T11:18:59;19.50;;;17.80;;
27977;SDS011;15314;49.248;6.968;2022-11-12T11:20:04;16.33;;;14.90;;
27977;SDS011;15314;49.248;6.968;2022-11-12T11:23:03;17.48;;;16.13;;
27977;SDS011;15314;49.248;6.968;2022-11-12T11:24:14;17.20;;;15.85;;
27977;SDS011;15314;49.248;6.968;2022-11-12T11:25:43;17.58;;;16.15;;
27977;SDS011;15314;49.248;6.968;2022-11-12T11:28:10;16.40;;;15.20;;
27977;SDS011;15314;49.248;6.968;2022-11-12T11:29:36;17.98;;;16.33;;
27977;SDS011;15314;49.248;6.968;2022-11-12T11:30:52;17.02;;;15.63;;
27977;SDS011;15314;49.248;6.968;2022-11-12T11:32:24;17.02;;;15.15;;
27977;SDS011;15314;49.248;6.968;2022-11-12T11:33:45;18.33;;;16.77;;
27977;SDS011;15314;49.248;6.968;2022-11-12T11:37:24;18.05;;;16.42;;
27977;SDS011;15314;49.248;6.968;2022-11-12T11:38:32;18.60;;;17.00;;
27977;SDS011;15314;49.248;6.968;2022-11-12T11:39:43;18.15;;;16.65;;
27977;SDS011;15314;49.248;6.968;2022-11-12T11:44:14;17.17;;;15.70;;
27977;SDS011;15314;49.248;6.968;2022-11-12T11:47:00;16.85;;;15.48;;
27977;SDS011;15314;49.248;6.968;2022-11-12T11:50:05;19.75;;;18.15;;
27977;SDS011;15314;49.248;6.968;2022-11-12T11:55:08;18.00;;;16.45;;
27977;SDS011;15314;49.248;6.968;2022-11-12T11:56:33;19.00;;;17.45;;
27977;SDS011;15314;49.248;6.968;2022-11-12T11:59:09;18.15;;;16.55;;
27977;SDS011;15314;49.248;6.968;2022-11-12T12:00:29;16.25;;;14.93;;
27977;SDS011;15314;49.248;6.968;2022-11-12T12:02:58;17.92;;;16.42;;
27977;SDS011;15314;49.248;6.968;2022-11-12T12:05:41;19.80;;;18.02;;
27977;SDS011;15314;49.248;6.968;2022-11-12T12:08:52;17.40;;;15.70;;
27977;SDS011;15314;49.248;6.968;2022-11-12T12:10:21;18.05;;;16.55;;
27977;SDS011;15314;49.248;6.968;2022-11-12T12:14:31;17.00;;;15.70;;
27977;SDS011;15314;49.248;6.968;2022-11-12T12:15:46;17.83;;;16.45;;
27977;SDS011;15314;49.248;6.968;2022-11-12T12:21:49;15.85;;;14.45;;
27977;SDS011;15314;49.248;6.968;2022-11-12T12:24:15;16.50;;;15.18;;
27977;SDS011;15314;49.248;6.968;2022-11-12T12:25:27;18.42;;;16.83;;
27977;SDS011;15314;49.248;6.968;2022-11-12T12:26:39;17.50;;;15.93;;
27977;SDS011;15314;49.248;6.968;2022-11-12T12:27:47;17.65;;;16.15;;
27977;SDS011;15314;49.248;6.968;2022-11-12T12:29:01;17.40;;;16.00;;
27977;SDS011;15314;49.248;6.968;2022-11-12T12:30:20;17.50;;;16.10;;
27977;SDS011;15314;49.248;6.968;2022-11-12T12:31:26;18.20;;;16.67;;
27977;SDS011;15314;49.248;6.968;2022-11-12T12:32:38;18.65;;;17.10;;
27977;SDS011;15314;49.248;6.968;2022-11-12T12:33:57;18.25;;;16.83;;
27977;SDS011;15314;49.248;6.968;2022-11-12T12:35:09;18.48;;;16.83;;
27977;SDS011;15314;49.248;6.968;2022-11-12T12:36:22;18.88;;;17.27;;
27977;SDS011;15314;49.248;6.968;2022-11-12T12:37:36;16.60;;;15.10;;
27977;SDS011;15314;49.248;6.968;2022-11-12T12:38:46;18.88;;;17.13;;
27977;SDS011;15314;49.248;6.968;2022-11-12T12:41:15;19.00;;;17.42;;
27977;SDS011;15314;49.248;6.968;2022-11-12T12:43:00;18.35;;;16.70;;
27977;SDS011;15314;49.248;6.968;2022-11-12T12:43:57;19.38;;;17.67;;
27977;SDS011;15314;49.248;6.968;2022-11-12T12:46:37;17.20;;;15.68;;
27977;SDS011;15314;49.248;6.968;2022-11-12T12:47:43;18.40;;;16.80;;
27977;SDS011;15314;49.248;6.968;2022-11-12T12:48:46;20.73;;;18.77;;
27977;SDS011;15314;49.248;6.968;2022-11-12T12:49:47;18.45;;;16.75;;
27977;SDS011;15314;49.248;6.968;2022-11-12T12:50:50;21.02;;;19.13;;
27977;SDS011;15314;49.248;6.968;2022-11-12T12:51:51;18.38;;;16.77;;
27977;SDS011;15314;49.248;6.968;2022-11-12T12:53:02;19.67;;;17.60;;
27977;SDS011;15314;49.248;6.968;2022-11-12T12:54:11;18.15;;;16.58;;
27977;SDS011;15314;49.248;6.968;2022-11-12T12:56:42;18.00;;;16.50;;
27977;SDS011;15314;49.248;6.968;2022-11-12T12:57:45;19.83;;;18.02;;
27977;SDS011;15314;49.248;6.968;2022-11-12T12:58:46;18.38;;;16.88;;
27977;SDS011;15314;49.248;6.968;2022-11-12T12:59:48;19.80;;;18.10;;
27977;SDS011;15314;49.248;6.968;2022-11-12T13:00:49;17.83;;;16.33;;
27977;SDS011;15314;49.248;6.968;2022-11-12T13:01:53;18.23;;;16.63;;
27977;SDS011;15314;49.248;6.968;2022-11-12T13:02:58;17.38;;;15.82;;
27977;SDS011;15314;49.248;6.968;2022-11-12T13:04:03;17.27;;;15.70;;
27977;SDS011;15314;49.248;6.968;2022-11-12T13:05:40;18.83;;;17.13;;
27977;SDS011;15314;49.248;6.968;2022-11-12T13:07:42;23.38;;;21.17;;
27977;SDS011;15314;49.248;6.968;2022-11-12T13:10:10;19.02;;;17.33;;
27977;SDS011;15314;49.248;6.968;2022-11-12T13:13:05;19.05;;;17.50;;
27977;SDS011;15314;49.248;6.968;2022-11-12T13:15:41;16.88;;;15.57;;
27977;SDS011;15314;49.248;6.968;2022-11-12T13:17:08;17.88;;;16.45;;
27977;SDS011;15314;49.248;6.968;2022-11-12T13:18:10;19.08;;;17.65;;
27977;SDS011;15314;49.248;6.968;2022-11-12T13:20:14;17.88;;;16.38;;
27977;SDS011;15314;49.248;6.968;2022-11-12T13:21:10;18.08;;;16.67;;
27977;SDS011;15314;49.248;6.968;2022-11-12T13:23:44;18.83;;;17.23;;
27977;SDS011;15314;49.248;6.968;2022-11-12T13:29:16;17.50;;;15.77;;
27977;SDS011;15314;49.248;6.968;2022-11-12T13:31:26;17.52;;;16.23;;
27977;SDS011;15314;49.248;6.968;2022-11-12T13:33:42;20.63;;;18.88;;
27977;SDS011;15314;49.248;6.968;2022-11-12T13:34:43;20.23;;;18.42;;
27977;SDS011;15314;49.248;6.968;2022-11-12T13:35:44;19.23;;;17.60;;
27977;SDS011;15314;49.248;6.968;2022-11-12T13:37:00;18.48;;;16.92;;
27977;SDS011;15314;49.248;6.968;2022-11-12T13:39:14;18.70;;;17.20;;
27977;SDS011;15314;49.248;6.968;2022-11-12T13:41:03;18.35;;;16.65;;
27977;SDS011;15314;49.248;6.968;2022-11-12T13:41:38;20.05;;;18.27;;
27977;SDS011;15314;49.248;6.968;2022-11-12T13:43:02;20.67;;;18.83;;
27977;SDS011;15314;49.248;6.968;2022-11-12T13:44:22;25.30;;;22.85;;
27977;SDS011;15314;49.248;6.968;2022-11-12T13:45:25;19.95;;;18.35;;
27977;SDS011;15314;49.248;6.968;2022-11-12T13:46:28;20.30;;;18.52;;
27977;SDS011;15314;49.248;6.968;2022-11-12T13:47:32;21.08;;;18.38;;
27977;SDS011;15314;49.248;6.968;2022-11-12T13:48:34;19.83;;;18.20;;
27977;SDS011;15314;49.248;6.968;2022-11-12T13:49:45;20.55;;;18.77;;
27977;SDS011;15314;49.248;6.968;2022-11-12T13:50:52;19.85;;;18.17;;
27977;SDS011;15314;49.248;6.968;2022-11-12T13:51:59;20.63;;;19.02;;
27977;SDS011;15314;49.248;6.968;2022-11-12T13:53:00;20.85;;;18.90;;
27977;SDS011;15314;49.248;6.968;2022-11-12T13:54:24;20.92;;;19.05;;
27977;SDS011;15314;49.248;6.968;2022-11-12T13:55:30;20.77;;;18.88;;
27977;SDS011;15314;49.248;6.968;2022-11-12T13:56:31;20.38;;;18.67;;
27977;SDS011;15314;49.248;6.968;2022-11-12T13:57:33;21.08;;;19.30;;
27977;SDS011;15314;49.248;6.968;2022-11-12T13:58:34;19.80;;;18.02;;
27977;SDS011;15314;49.248;6.968;2022-11-12T13:59:35;20.25;;;18.55;;
27977;SDS011;15314;49.248;6.968;2022-11-12T14:00:35;21.83;;;19.83;;
27977;SDS011;15314;49.248;6.968;2022-11-12T14:01:36;19.70;;;18.10;;
27977;SDS011;15314;49.248;6.968;2022-11-12T14:02:37;20.15;;;18.50;;
27977;SDS011;15314;49.248;6.968;2022-11-12T14:03:42;21.25;;;19.45;;
27977;SDS011;15314;49.248;6.968;2022-11-12T14:04:46;21.13;;;19.33;;
27977;SDS011;15314;49.248;6.968;2022-11-12T14:05:47;19.65;;;18.02;;
27977;SDS011;15314;49.248;6.968;2022-11-12T14:06:50;20.13;;;18.48;;
27977;SDS011;15314;49.248;6.968;2022-11-12T14:07:57;20.58;;;18.85;;
27977;SDS011;15314;49.248;6.968;2022-11-12T14:09:12;21.52;;;19.45;;
27977;SDS011;15314;49.248;6.968;2022-11-12T14:13:10;21.08;;;19.25;;
27977;SDS011;15314;49.248;6.968;2022-11-12T14:20:22;19.23;;;17.65;;
27977;SDS011;15314;49.248;6.968;2022-11-12T14:21:25;19.58;;;17.88;;
27977;SDS011;15314;49.248;6.968;2022-11-12T14:22:26;17.85;;;16.25;;
27977;SDS011;15314;49.248;6.968;2022-11-12T14:23:36;17.88;;;16.30;;
27977;SDS011;15314;49.248;6.968;2022-11-12T14:24:38;18.55;;;17.05;;
27977;SDS011;15314;49.248;6.968;2022-11-12T14:25:45;20.35;;;18.58;;
27977;SDS011;15314;49.248;6.968;2022-11-12T14:26:47;20.45;;;18.65;;
27977;SDS011;15314;49.248;6.968;2022-11-12T14:27:48;20.85;;;19.05;;
27977;SDS011;15314;49.248;6.968;2022-11-12T14:28:54;20.35;;;18.65;;
27977;SDS011;15314;49.248;6.968;2022-11-12T14:30:15;20.02;;;18.23;;
27977;SDS011;15314;49.248;6.968;2022-11-12T14:31:24;21.85;;;19.80;;
27977;SDS011;15314;49.248;6.968;2022-11-12T14:32:25;21.95;;;19.95;;
27977;SDS011;15314;49.248;6.968;2022-11-12T14:33:26;24.55;;;22.15;;
27977;SDS011;15314;49.248;6.968;2022-11-12T14:34:31;24.33;;;21.85;;
27977;SDS011;15314;49.248;6.968;2022-11-12T14:35:36;19.90;;;18.23;;
27977;SDS011;15314;49.248;6.968;2022-11-12T14:36:38;21.48;;;19.48;;
27977;SDS011;15314;49.248;6.968;2022-11-12T14:37:39;20.20;;;18.40;;
27977;SDS011;15314;49.248;6.968;2022-11-12T14:38:51;21.85;;;19.92;;
27977;SDS011;15314;49.248;6.968;2022-11-12T14:39:54;22.02;;;19.92;;
27977;SDS011;15314;49.248;6.968;2022-11-12T14:40:56;20.30;;;18.52;;
27977;SDS011;15314;49.248;6.968;2022-11-12T14:42:00;22.17;;;19.98;;
27977;SDS011;15314;49.248;6.968;2022-11-12T14:43:01;20.65;;;18.85;;
27977;SDS011;15314;49.248;6.968;2022-11-12T14:44:02;21.92;;;20.02;;
27977;SDS011;15314;49.248;6.968;2022-11-12T14:45:04;23.77;;;21.52;;
27977;SDS011;15314;49.248;6.968;2022-11-12T14:46:20;22.50;;;20.52;;
27977;SDS011;15314;49.248;6.968;2022-11-12T14:47:26;23.75;;;21.25;;
27977;SDS011;15314;49.248;6.968;2022-11-12T14:48:27;23.02;;;20.75;;
27977;SDS011;15314;49.248;6.968;2022-11-12T14:49:36;20.70;;;18.88;;
27977;SDS011;15314;49.248;6.968;2022-11-12T14:50:39;21.42;;;19.35;;
27977;SDS011;15314;49.248;6.968;2022-11-12T14:51:45;22.83;;;20.83;;
27977;SDS011;15314;49.248;6.968;2022-11-12T14:52:56;21.65;;;19.55;;
27977;SDS011;15314;49.248;6.968;2022-11-12T14:54:07;23.63;;;21.27;;
27977;SDS011;15314;49.248;6.968;2022-11-12T14:55:14;25.67;;;23.08;;
27977;SDS011;15314;49.248;6.968;2022-11-12T14:56:35;23.00;;;20.67;;
27977;SDS011;15314;49.248;6.968;2022-11-12T14:57:39;23.65;;;21.45;;
27977;SDS011;15314;49.248;6.968;2022-11-12T14:58:40;20.45;;;18.55;;
27977;SDS011;15314;49.248;6.968;2022-11-12T14:59:41;21.40;;;19.40;;
27977;SDS011;15314;49.248;6.968;2022-11-12T15:00:43;21.10;;;19.02;;
27977;SDS011;15314;49.248;6.968;2022-11-12T15:02:06;21.80;;;19.77;;
27977;SDS011;15314;49.248;6.968;2022-11-12T15:03:19;22.95;;;20.40;;
27977;SDS011;15314;49.248;6.968;2022-11-12T15:04:22;25.17;;;22.58;;
27977;SDS011;15314;49.248;6.968;2022-11-12T15:05:24;21.02;;;19.17;;
27977;SDS011;15314;49.248;6.968;2022-11-12T15:06:29;25.17;;;22.77;;
27977;SDS011;15314;49.248;6.968;2022-11-12T15:07:38;23.15;;;20.73;;
27977;SDS011;15314;49.248;6.968;2022-11-12T15:08:55;24.25;;;21.65;;
27977;SDS011;15314;49.248;6.968;2022-11-12T15:09:57;25.20;;;22.52;;
27977;SDS011;15314;49.248;6.968;2022-11-12T15:11:14;28.80;;;23.40;;
27977;SDS011;15314;49.248;6.968;2022-11-12T15:12:25;24.98;;;21.95;;
27977;SDS011;15314;49.248;6.968;2022-11-12T15:13:36;24.83;;;22.45;;
27977;SDS011;15314;49.248;6.968;2022-11-12T15:14:38;24.60;;;22.08;;
27977;SDS011;15314;49.248;6.968;2022-11-12T15:15:48;26.35;;;23.65;;
27977;SDS011;15314;49.248;6.968;2022-11-12T15:16:57;29.15;;;24.88;;
27977;SDS011;15314;49.248;6.968;2022-11-12T15:18:00;29.65;;;26.63;;
27977;SDS011;15314;49.248;6.968;2022-11-12T15:20:18;39.47;;;34.67;;
27977;SDS011;15314;49.248;6.968;2022-11-12T15:21:26;22.75;;;20.48;;
27977;SDS011;15314;49.248;6.968;2022-11-12T15:22:28;26.58;;;23.40;;
27977;SDS011;15314;49.248;6.968;2022-11-12T15:23:29;23.70;;;21.40;;
27977;SDS011;15314;49.248;6.968;2022-11-12T15:24:31;28.33;;;25.48;;
27977;SDS011;15314;49.248;6.968;2022-11-12T15:25:33;27.65;;;24.98;;
27977;SDS011;15314;49.248;6.968;2022-11-12T15:26:38;27.73;;;24.95;;
27977;SDS011;15314;49.248;6.968;2022-11-12T15:27:41;25.10;;;22.70;;
27977;SDS011;15314;49.248;6.968;2022-11-12T15:28:56;26.08;;;23.52;;
27977;SDS011;15314;49.248;6.968;2022-11-12T15:32:31;27.60;;;22.05;;
27977;SDS011;15314;49.248;6.968;2022-11-12T15:33:32;28.42;;;25.33;;
27977;SDS011;15314;49.248;6.968;2022-11-12T15:35:40;25.83;;;23.20;;
27977;SDS011;15314;49.248;6.968;2022-11-12T15:36:44;26.15;;;23.42;;
27977;SDS011;15314;49.248;6.968;2022-11-12T15:37:45;25.55;;;23.15;;
27977;SDS011;15314;49.248;6.968;2022-11-12T15:38:47;26.40;;;23.73;;
27977;SDS011;15314;49.248;6.968;2022-11-12T15:39:50;26.17;;;23.52;;
27977;SDS011;15314;49.248;6.968;2022-11-12T15:40:57;25.10;;;22.67;;
27977;SDS011;15314;49.248;6.968;2022-11-12T15:42:03;25.00;;;22.60;;
27977;SDS011;15314;49.248;6.968;2022-11-12T15:43:13;23.75;;;21.55;;
27977;SDS011;15314;49.248;6.968;2022-11-12T15:44:16;25.33;;;22.92;;
27977;SDS011;15314;49.248;6.968;2022-11-12T15:45:17;28.10;;;25.23;;
27977;SDS011;15314;49.248;6.968;2022-11-12T15:46:19;27.00;;;24.38;;
27977;SDS011;15314;49.248;6.968;2022-11-12T15:47:21;33.67;;;30.20;;
27977;SDS011;15314;49.248;6.968;2022-11-12T15:48:21;28.15;;;25.27;;
27977;SDS011;15314;49.248;6.968;2022-11-12T15:49:22;26.38;;;23.85;;
27977;SDS011;15314;49.248;6.968;2022-11-12T15:50:23;26.40;;;23.80;;
27977;SDS011;15314;49.248;6.968;2022-11-12T15:51:24;27.25;;;24.40;;
27977;SDS011;15314;49.248;6.968;2022-11-12T15:52:24;25.30;;;22.80;;
27977;SDS011;15314;49.248;6.968;2022-11-12T15:53:25;27.90;;;24.63;;
27977;SDS011;15314;49.248;6.968;2022-11-12T15:54:25;27.13;;;24.23;;
27977;SDS011;15314;49.248;6.968;2022-11-12T15:55:26;25.60;;;22.85;;
27977;SDS011;15314;49.248;6.968;2022-11-12T15:56:27;25.77;;;23.30;;